Time;durP1;ratioP1;P1;durP2;ratioP2;P2;SDS_P1;SDS_P2;PMS_P1;PMS_P2;Temp;Humidity;BMP_temperature;BMP_pressure;BME280_temperature;BME280_humidity;BME280_pressure;Samples;Min_cycle;Max_cycle;Signal;HPM_P1;HPM_P2
2021/05/17 00:02:21;;;;;;;0.20;0.20;;;11.10;99.90;;;;;;5038171;28;20178;-80
2021/05/17 00:04:48;;;;;;;0.30;0.10;;;11.00;99.90;;;;;;5037906;28;20186;-80
2021/05/17 00:07:14;;;;;;;0.97;0.97;;;11.00;99.90;;;;;;5034319;28;20223;-79
2021/05/17 00:09:41;;;;;;;0.30;0.30;;;10.90;99.90;;;;;;5033906;28;20193;-79
2021/05/17 00:12:08;;;;;;;0.30;0.30;;;10.90;99.90;;;;;;5035309;28;20579;-80
2021/05/17 00:14:34;;;;;;;0.13;0.13;;;10.80;99.90;;;;;;5037947;28;20177;-78
2021/05/17 00:17:00;;;;;;;0.27;0.10;;;10.80;99.90;;;;;;5037873;28;20208;-79
2021/05/17 00:19:26;;;;;;;0.20;0.20;;;10.70;99.90;;;;;;5029289;28;20190;-79
2021/05/17 00:21:52;;;;;;;0.03;0.03;;;10.70;99.90;;;;;;5037419;28;20265;-79
2021/05/17 00:24:19;;;;;;;0.10;0.10;;;10.50;99.90;;;;;;5038649;28;20597;-80
2021/05/17 00:26:45;;;;;;;0.10;0.10;;;10.50;99.90;;;;;;5038420;28;20263;-80
2021/05/17 00:29:11;;;;;;;0.10;0.10;;;10.50;99.90;;;;;;5054480;28;20202;-78
2021/05/17 00:31:38;;;;;;;0.00;0.00;;;10.40;99.90;;;;;;5054671;28;20201;-77
2021/05/17 00:34:05;;;;;;;0.10;0.10;;;10.40;99.90;;;;;;5054808;28;20185;-77
2021/05/17 00:36:32;;;;;;;0.10;0.10;;;10.40;99.90;;;;;;5055625;28;20198;-77
2021/05/17 00:39:02;;;;;;;0.20;0.20;;;10.50;99.90;;;;;;5056524;28;20200;-77
2021/05/17 00:41:28;;;;;;;0.20;0.20;;;10.50;99.90;;;;;;5056049;28;20191;-76
2021/05/17 00:43:55;;;;;;;0.03;0.03;;;10.40;99.90;;;;;;5055518;28;20249;-76
2021/05/17 00:46:22;;;;;;;0.10;0.10;;;10.40;99.90;;;;;;5054567;28;20227;-77
2021/05/17 00:48:48;;;;;;;0.20;0.20;;;10.40;99.90;;;;;;5053994;28;20199;-80
2021/05/17 00:51:14;;;;;;;0.10;0.10;;;10.30;99.90;;;;;;5053822;28;20197;-77
2021/05/17 00:53:40;;;;;;;0.20;0.20;;;10.30;99.90;;;;;;5054518;28;20213;-78
2021/05/17 00:56:06;;;;;;;0.10;0.10;;;10.30;99.90;;;;;;5054086;28;20240;-79
2021/05/17 00:58:32;;;;;;;0.10;0.10;;;10.30;99.90;;;;;;5052687;28;20202;-78
2021/05/17 01:00:59;;;;;;;0.13;0.13;;;10.40;99.90;;;;;;5052286;28;20187;-77
2021/05/17 01:03:25;;;;;;;0.10;0.10;;;10.30;99.90;;;;;;5040268;28;20218;-80
2021/05/17 01:05:52;;;;;;;0.10;0.10;;;10.30;99.90;;;;;;5038221;28;20198;-78
2021/05/17 01:08:25;;;;;;;0.00;0.00;;;10.40;99.90;;;;;;5038156;28;20196;-80
2021/05/17 01:10:54;;;;;;;0.10;0.10;;;10.50;99.90;;;;;;5034967;28;20261;-80
2021/05/17 01:13:20;;;;;;;0.10;0.10;;;10.50;99.90;;;;;;5030657;28;20187;-80
2021/05/17 01:15:51;;;;;;;0.07;0.07;;;10.50;99.90;;;;;;5025552;28;20185;-80
2021/05/17 01:18:17;;;;;;;0.10;0.10;;;10.60;99.90;;;;;;5035155;28;20190;-80
2021/05/17 01:20:46;;;;;;;0.10;0.10;;;10.60;99.90;;;;;;5034339;28;20563;-80
2021/05/17 01:25:50;;;;;;;0.10;0.10;;;10.60;99.90;;;;;;5037348;28;20209;-79
2021/05/17 01:28:21;;;;;;;0.20;0.20;;;10.70;99.90;;;;;;5034071;28;20277;-78
2021/05/17 01:30:48;;;;;;;0.10;0.10;;;10.70;99.90;;;;;;5040637;28;20189;-79
2021/05/17 01:33:14;;;;;;;0.10;0.10;;;10.70;99.90;;;;;;5036669;28;20265;-79
2021/05/17 01:35:41;;;;;;;0.10;0.10;;;10.70;99.90;;;;;;5036212;28;20229;-79
2021/05/17 01:38:08;;;;;;;0.10;0.10;;;10.60;99.90;;;;;;5036961;28;20280;-80
2021/05/17 01:40:38;;;;;;;0.10;0.10;;;10.60;99.90;;;;;;5036814;28;20181;-79
2021/05/17 01:43:05;;;;;;;0.10;0.10;;;10.60;99.90;;;;;;5040131;28;20205;-79
2021/05/17 01:45:31;;;;;;;0.10;0.10;;;10.60;99.90;;;;;;5035571;28;20182;-79
2021/05/17 01:48:22;;;;;;;0.10;0.10;;;10.60;99.90;;;;;;5035292;28;20214;-78
2021/05/17 01:50:49;;;;;;;0.50;0.17;;;10.60;99.90;;;;;;5048342;28;20344;-79
2021/05/17 01:53:16;;;;;;;0.10;0.10;;;10.60;99.90;;;;;;5035077;28;20661;-80
2021/05/17 01:55:42;;;;;;;0.10;0.10;;;10.60;99.90;;;;;;5037100;28;20538;-79
2021/05/17 01:58:19;;;;;;;0.10;0.10;;;10.60;99.90;;;;;;5037911;28;20182;-79
2021/05/17 02:00:45;;;;;;;0.10;0.10;;;10.60;99.90;;;;;;5037735;28;20260;-80
2021/05/17 02:03:10;;;;;;;0.00;0.00;;;10.60;99.90;;;;;;5036036;28;20213;-79
2021/05/17 02:05:37;;;;;;;0.00;0.00;;;10.60;99.90;;;;;;5034129;28;20190;-78
2021/05/17 02:08:04;;;;;;;0.10;0.10;;;10.60;99.90;;;;;;5028434;28;20265;-80
2021/05/17 02:10:31;;;;;;;0.43;0.43;;;10.60;99.90;;;;;;5037755;28;20179;-80
2021/05/17 02:12:57;;;;;;;0.00;0.00;;;10.60;99.90;;;;;;5035918;28;20182;-79
2021/05/17 02:15:23;;;;;;;0.10;0.10;;;10.50;99.90;;;;;;5034797;28;20192;-79
2021/05/17 02:18:02;;;;;;;0.10;0.10;;;10.50;99.90;;;;;;5035099;28;20197;-79
2021/05/17 02:20:31;;;;;;;0.00;0.00;;;10.40;99.90;;;;;;5035981;28;20209;-79
2021/05/17 02:22:58;;;;;;;0.10;0.10;;;10.50;99.90;;;;;;5034442;28;20186;-79
2021/05/17 02:25:24;;;;;;;0.40;0.37;;;10.40;99.90;;;;;;5035398;28;20190;-79
2021/05/17 02:27:50;;;;;;;0.10;0.10;;;10.40;99.90;;;;;;5034595;28;20237;-78
2021/05/17 02:30:16;;;;;;;0.10;0.10;;;10.40;99.90;;;;;;5036852;28;20200;-79
2021/05/17 02:32:42;;;;;;;0.03;0.03;;;10.40;99.90;;;;;;5037182;28;20183;-79
2021/05/17 02:35:08;;;;;;;0.10;0.10;;;10.40;99.90;;;;;;5031011;28;20270;-79
2021/05/17 02:37:34;;;;;;;0.00;0.00;;;10.40;99.90;;;;;;5030153;28;20637;-79
2021/05/17 02:40:01;;;;;;;0.80;0.07;;;10.40;99.90;;;;;;5035967;28;20183;-79
2021/05/17 02:42:28;;;;;;;0.10;0.10;;;10.50;99.90;;;;;;5034792;28;20181;-79
2021/05/17 02:44:55;;;;;;;0.03;0.03;;;10.50;99.90;;;;;;5032433;28;20273;-79
2021/05/17 02:47:22;;;;;;;0.00;0.00;;;10.60;99.90;;;;;;5034268;28;20300;-79
2021/05/17 02:49:50;;;;;;;0.00;0.00;;;10.70;99.90;;;;;;5030948;28;20186;-79
2021/05/17 02:52:17;;;;;;;0.10;0.10;;;10.70;99.90;;;;;;5034556;28;20187;-79
2021/05/17 02:54:53;;;;;;;0.10;0.10;;;10.70;99.90;;;;;;5029767;28;20179;-79
2021/05/17 02:57:33;;;;;;;0.10;0.10;;;10.70;99.90;;;;;;5029975;28;20213;-78
2021/05/17 03:00:07;;;;;;;0.10;0.10;;;10.80;99.90;;;;;;5032919;28;20195;-80
2021/05/17 03:02:59;;;;;;;0.00;0.00;;;10.70;99.90;;;;;;5036061;28;20178;-79
2021/05/17 03:05:30;;;;;;;0.00;0.00;;;10.80;99.90;;;;;;5028919;28;20175;-80
2021/05/17 03:08:08;;;;;;;0.00;0.00;;;10.90;99.90;;;;;;5033585;28;20304;-79
2021/05/17 03:10:45;;;;;;;0.20;0.20;;;11.10;99.90;;;;;;5032987;28;20552;-79
2021/05/17 03:13:16;;;;;;;0.10;0.10;;;11.10;99.90;;;;;;5033502;28;20260;-79
2021/05/17 03:15:44;;;;;;;0.10;0.10;;;11.20;99.90;;;;;;5026706;28;20207;-80
2021/05/17 03:18:10;;;;;;;0.10;0.10;;;11.30;99.90;;;;;;5035704;28;20680;-79
2021/05/17 03:20:36;;;;;;;0.10;0.10;;;11.20;99.90;;;;;;5034346;28;20265;-78
2021/05/17 03:23:07;;;;;;;0.10;0.10;;;11.30;99.90;;;;;;5035755;28;20178;-79
2021/05/17 03:25:37;;;;;;;0.00;0.00;;;11.30;99.90;;;;;;5032685;28;20185;-80
2021/05/17 03:28:03;;;;;;;0.10;0.10;;;11.30;99.90;;;;;;5033104;28;20201;-80
2021/05/17 03:30:28;;;;;;;0.10;0.10;;;11.30;99.90;;;;;;5032542;28;20175;-80
2021/05/17 03:32:54;;;;;;;0.20;0.20;;;11.40;99.90;;;;;;5033335;28;20257;-79
2021/05/17 03:35:20;;;;;;;0.10;0.10;;;11.30;99.90;;;;;;5029552;28;20185;-80
2021/05/17 03:37:46;;;;;;;0.10;0.10;;;11.40;99.90;;;;;;5025215;28;20872;-79
2021/05/17 03:40:13;;;;;;;0.10;0.10;;;11.30;99.90;;;;;;5033628;28;20182;-79
2021/05/17 03:42:40;;;;;;;0.33;0.20;;;11.40;99.90;;;;;;5033388;28;20693;-78
2021/05/17 03:45:07;;;;;;;0.50;0.50;;;11.30;99.90;;;;;;5032160;28;20186;-80
2021/05/17 03:47:33;;;;;;;0.10;0.10;;;11.30;99.90;;;;;;5028877;28;20222;-80
2021/05/17 03:49:59;;;;;;;0.13;0.10;;;11.40;99.90;;;;;;5033229;28;20182;-80
2021/05/17 03:52:25;;;;;;;0.30;0.30;;;11.50;99.90;;;;;;5033774;28;20228;-80
2021/05/17 03:54:51;;;;;;;0.00;0.00;;;11.50;99.90;;;;;;5031870;28;20212;-79
2021/05/17 03:57:16;;;;;;;0.07;0.07;;;11.50;99.90;;;;;;5032224;28;20245;-79
2021/05/17 03:59:45;;;;;;;0.17;0.17;;;11.50;99.90;;;;;;5031134;28;20186;-80
2021/05/17 04:02:14;;;;;;;1.07;0.20;;;11.60;99.90;;;;;;5031473;28;20202;-78
2021/05/17 04:04:44;;;;;;;0.10;0.10;;;11.60;99.90;;;;;;5032237;28;20273;-80
2021/05/17 04:15:22;;;;;;;0.10;0.10;;;11.70;99.90;;;;;;5025177;28;20196;-80
2021/05/17 04:17:48;;;;;;;0.10;0.10;;;11.80;99.90;;;;;;5031574;28;20216;-80
2021/05/17 04:20:14;;;;;;;0.00;0.00;;;11.80;99.90;;;;;;5030085;28;20256;-79
2021/05/17 04:22:41;;;;;;;0.10;0.10;;;11.90;99.90;;;;;;5032208;28;20234;-80
2021/05/17 04:25:07;;;;;;;0.10;0.10;;;11.90;99.90;;;;;;5031911;28;20182;-80
2021/05/17 04:27:33;;;;;;;0.30;0.20;;;11.90;99.90;;;;;;5029629;28;20264;-80
2021/05/17 04:29:58;;;;;;;0.10;0.10;;;11.90;99.90;;;;;;5032119;28;20187;-80
2021/05/17 04:32:24;;;;;;;0.10;0.10;;;11.90;99.90;;;;;;5025961;28;20224;-80
2021/05/17 04:34:50;;;;;;;0.10;0.10;;;11.90;99.90;;;;;;5020158;28;20197;-80
2021/05/17 04:37:15;;;;;;;0.10;0.10;;;11.90;99.90;;;;;;5031743;28;20251;-79
2021/05/17 04:39:41;;;;;;;0.10;0.10;;;11.80;99.90;;;;;;5035081;28;20209;-79
2021/05/17 04:42:06;;;;;;;0.10;0.10;;;11.90;99.90;;;;;;5031975;28;20220;-82
2021/05/17 04:44:35;;;;;;;0.30;0.10;;;11.90;99.90;;;;;;5034302;28;20217;-81
2021/05/17 04:47:00;;;;;;;0.10;0.10;;;12.00;99.90;;;;;;5030861;28;20224;-83
2021/05/17 04:49:26;;;;;;;0.10;0.10;;;12.00;99.90;;;;;;5034328;28;20174;-83
2021/05/17 04:51:52;;;;;;;0.10;0.10;;;12.10;99.90;;;;;;5033789;28;20239;-81
2021/05/17 04:54:17;;;;;;;0.20;0.20;;;12.20;99.90;;;;;;5034863;28;20206;-79
2021/05/17 04:56:43;;;;;;;0.10;0.10;;;12.30;99.90;;;;;;5024346;28;20305;-79
2021/05/17 04:59:08;;;;;;;0.10;0.10;;;12.40;99.90;;;;;;5022477;28;20267;-80
2021/05/17 05:01:34;;;;;;;0.10;0.10;;;12.50;99.90;;;;;;5028505;28;20551;-78
2021/05/17 05:03:59;;;;;;;0.10;0.10;;;12.50;99.90;;;;;;5035021;28;20627;-79
2021/05/17 05:06:25;;;;;;;0.10;0.10;;;12.50;99.90;;;;;;5033784;28;20629;-79
2021/05/17 05:08:50;;;;;;;0.00;0.00;;;12.50;99.90;;;;;;5033272;28;20205;-83
2021/05/17 05:11:16;;;;;;;0.10;0.10;;;12.50;99.90;;;;;;5026650;28;20183;-81
2021/05/17 05:13:42;;;;;;;0.23;0.23;;;12.50;99.90;;;;;;5031400;28;20174;-81
2021/05/17 05:16:09;;;;;;;0.10;0.10;;;12.50;99.90;;;;;;5027741;28;20222;-82
2021/05/17 05:18:34;;;;;;;0.10;0.10;;;12.60;99.90;;;;;;5032283;28;20294;-81
2021/05/17 05:21:00;;;;;;;0.10;0.10;;;12.60;99.90;;;;;;5032409;28;20273;-83
2021/05/17 05:23:25;;;;;;;0.17;0.17;;;12.60;99.90;;;;;;5025100;28;20285;-83
2021/05/17 05:28:23;;;;;;;0.47;0.30;;;12.90;99.90;;;;;;5033004;28;20202;-81
2021/05/17 05:31:09;;;;;;;0.10;0.10;;;13.10;99.90;;;;;;5027073;28;20808;-80
2021/05/17 05:33:34;;;;;;;0.23;0.10;;;13.30;99.90;;;;;;5032242;28;20203;-80
2021/05/17 05:36:00;;;;;;;0.10;0.10;;;13.50;99.90;;;;;;5028722;28;20678;-81
2021/05/17 05:38:25;;;;;;;0.00;0.00;;;13.70;99.90;;;;;;5029657;28;20555;-80
2021/05/17 05:40:51;;;;;;;0.07;0.07;;;13.70;99.90;;;;;;5028952;28;20191;-79
2021/05/17 05:43:18;;;;;;;0.17;0.17;;;13.60;99.90;;;;;;5027956;28;20187;-80
2021/05/17 05:45:46;;;;;;;0.10;0.10;;;13.60;99.90;;;;;;5032372;28;20184;-82
2021/05/17 05:48:13;;;;;;;0.20;0.20;;;13.40;99.90;;;;;;5027359;28;20186;-83
2021/05/17 05:50:39;;;;;;;0.10;0.10;;;13.30;99.90;;;;;;5030273;28;20182;-80
2021/05/17 05:53:08;;;;;;;0.20;0.20;;;13.10;99.90;;;;;;5026240;28;20182;-82
2021/05/17 05:55:33;;;;;;;0.17;0.17;;;13.10;99.90;;;;;;5028182;28;20170;-82
2021/05/17 05:57:59;;;;;;;0.00;0.00;;;13.00;99.90;;;;;;5029931;28;20954;-81
2021/05/17 06:00:31;;;;;;;0.23;0.17;;;13.10;99.90;;;;;;5029400;28;20529;-82
2021/05/17 06:03:01;;;;;;;0.10;0.10;;;13.10;99.90;;;;;;5030620;28;20194;-82
2021/05/17 06:05:27;;;;;;;0.10;0.10;;;13.20;99.90;;;;;;5032954;28;20184;-82
2021/05/17 06:07:53;;;;;;;0.27;0.27;;;13.30;99.90;;;;;;5032451;28;20240;-83
2021/05/17 06:10:19;;;;;;;0.00;0.00;;;13.40;99.90;;;;;;5029513;28;20687;-80
2021/05/17 06:12:48;;;;;;;0.07;0.07;;;13.40;99.90;;;;;;5028767;28;20179;-81
2021/05/17 06:15:16;;;;;;;0.20;0.20;;;13.70;99.90;;;;;;5032292;28;20180;-79
2021/05/17 06:17:42;;;;;;;0.10;0.10;;;13.90;99.90;;;;;;5033008;28;20281;-81
2021/05/17 06:20:09;;;;;;;0.50;0.23;;;14.00;99.90;;;;;;5030023;28;20186;-80
2021/05/17 06:22:39;;;;;;;0.20;0.20;;;13.90;99.90;;;;;;5035177;28;20187;-81
2021/05/17 06:25:10;;;;;;;0.10;0.10;;;13.60;99.90;;;;;;5029703;28;20209;-80
2021/05/17 06:27:37;;;;;;;0.10;0.10;;;13.60;99.90;;;;;;5029224;28;20211;-81
2021/05/17 06:30:06;;;;;;;0.20;0.20;;;13.70;99.90;;;;;;5029195;28;20243;-80
2021/05/17 06:32:35;;;;;;;0.30;0.30;;;13.90;99.90;;;;;;5034235;28;20184;-79
2021/05/17 06:35:01;;;;;;;0.13;0.13;;;14.20;99.90;;;;;;5033025;28;20256;-80
2021/05/17 06:37:26;;;;;;;0.10;0.10;;;14.30;99.90;;;;;;5030136;28;20614;-81
2021/05/17 06:39:52;;;;;;;0.40;0.40;;;14.30;99.90;;;;;;5034990;28;20179;-80
2021/05/17 06:42:18;;;;;;;0.10;0.10;;;14.20;99.90;;;;;;5034825;28;21085;-81
2021/05/17 06:44:44;;;;;;;0.13;0.13;;;14.20;99.90;;;;;;5035892;28;20207;-82
2021/05/17 06:47:10;;;;;;;0.10;0.10;;;14.30;99.90;;;;;;5037244;28;20236;-82
2021/05/17 06:49:37;;;;;;;0.40;0.20;;;14.50;99.90;;;;;;5036695;28;20190;-82
2021/05/17 06:52:03;;;;;;;0.80;0.80;;;14.40;99.90;;;;;;5036190;28;20266;-81
2021/05/17 06:54:29;;;;;;;0.10;0.10;;;14.50;99.90;;;;;;5031877;28;20183;-80
2021/05/17 06:57:10;;;;;;;0.07;0.07;;;14.50;99.90;;;;;;5035546;28;20213;-81
2021/05/17 06:59:54;;;;;;;0.23;0.23;;;14.50;99.90;;;;;;5021512;28;20181;-80
2021/05/17 07:02:24;;;;;;;0.23;0.23;;;14.50;99.90;;;;;;5041303;28;20551;-80
2021/05/17 07:04:51;;;;;;;0.13;0.13;;;14.70;99.90;;;;;;5032281;28;20266;-81
2021/05/17 07:12:52;;;;;;;0.23;0.20;;;14.60;99.90;;;;;;5032984;28;20265;-82
2021/05/17 07:15:17;;;;;;;0.50;0.20;;;14.80;99.90;;;;;;5030220;28;20193;-81
2021/05/17 07:17:44;;;;;;;0.10;0.10;;;15.00;99.90;;;;;;5030312;28;20190;-80
2021/05/17 07:20:15;;;;;;;0.10;0.10;;;15.20;99.90;;;;;;5025847;28;20243;-81
2021/05/17 07:25:31;;;;;;;0.00;0.00;;;15.80;99.90;;;;;;5070251;28;20201;-79
2021/05/17 07:27:56;;;;;;;0.77;0.77;;;15.70;99.90;;;;;;5070469;28;20283;-80
2021/05/17 07:30:22;;;;;;;0.10;0.10;;;15.40;99.90;;;;;;5065191;28;20196;-79
2021/05/17 07:32:47;;;;;;;0.17;0.13;;;15.20;99.90;;;;;;5065591;28;20205;-78
2021/05/17 07:35:13;;;;;;;0.13;0.10;;;15.10;99.90;;;;;;5068071;28;20628;-79
2021/05/17 07:37:38;;;;;;;0.10;0.10;;;15.00;99.90;;;;;;5070168;28;20243;-80
2021/05/17 07:40:05;;;;;;;0.10;0.10;;;14.80;99.90;;;;;;5070407;28;20198;-80
2021/05/17 07:42:30;;;;;;;0.10;0.10;;;14.70;99.90;;;;;;5077306;28;20213;-80
2021/05/17 07:44:56;;;;;;;0.10;0.10;;;14.70;99.90;;;;;;5070661;28;20197;-81
2021/05/17 07:47:22;;;;;;;0.10;0.10;;;14.70;99.90;;;;;;5067226;28;20271;-79
2021/05/17 07:49:54;;;;;;;0.20;0.20;;;14.60;99.90;;;;;;5062692;28;20187;-80
2021/05/17 07:52:20;;;;;;;1.60;0.23;;;14.40;99.90;;;;;;5065029;28;20772;-80
2021/05/17 07:54:46;;;;;;;0.10;0.10;;;14.30;99.90;;;;;;5059684;28;20279;-78
2021/05/17 07:57:13;;;;;;;0.10;0.10;;;14.30;99.90;;;;;;5063434;28;21038;-78
2021/05/17 07:59:38;;;;;;;0.20;0.20;;;14.40;99.90;;;;;;5057836;28;20200;-78
2021/05/17 08:02:04;;;;;;;0.10;0.10;;;14.40;99.90;;;;;;5065282;28;20352;-78
2021/05/17 08:04:30;;;;;;;0.10;0.10;;;14.60;99.90;;;;;;5057089;28;20194;-79
2021/05/17 08:06:55;;;;;;;5.93;0.20;;;14.80;99.90;;;;;;5074353;28;20258;-78
2021/05/17 08:09:21;;;;;;;0.40;0.20;;;15.00;99.90;;;;;;5067598;28;20189;-79
2021/05/17 08:11:49;;;;;;;0.10;0.10;;;15.10;99.90;;;;;;5062402;28;20190;-78
2021/05/17 08:14:15;;;;;;;0.10;0.10;;;14.90;99.90;;;;;;5065854;28;20192;-77
2021/05/17 08:16:41;;;;;;;1.00;0.90;;;14.80;99.90;;;;;;5065885;28;20234;-78
2021/05/17 08:19:07;;;;;;;1.07;0.97;;;14.80;99.90;;;;;;5065872;28;20191;-78
2021/05/17 08:21:33;;;;;;;0.10;0.10;;;14.80;99.90;;;;;;5064761;28;20222;-78
2021/05/17 08:23:58;;;;;;;0.00;0.00;;;15.00;99.90;;;;;;5065053;28;20539;-77
2021/05/17 08:26:25;;;;;;;0.07;0.07;;;15.30;99.90;;;;;;5062951;28;20301;-78
2021/05/17 08:28:51;;;;;;;0.10;0.10;;;15.40;99.90;;;;;;5057615;28;20190;-79
2021/05/17 08:31:19;;;;;;;0.10;0.10;;;15.40;99.90;;;;;;5068165;28;20237;-80
2021/05/17 08:33:45;;;;;;;0.03;0.03;;;15.30;99.90;;;;;;5056247;28;20190;-79
2021/05/17 08:36:12;;;;;;;0.10;0.10;;;15.60;99.90;;;;;;5052901;28;20297;-79
2021/05/17 08:38:38;;;;;;;0.03;0.03;;;15.90;99.90;;;;;;5053450;28;20546;-79
2021/05/17 08:41:04;;;;;;;1.93;0.30;;;16.00;99.90;;;;;;5052927;28;20203;-79
2021/05/17 08:43:30;;;;;;;0.10;0.10;;;16.00;99.90;;;;;;5055237;28;20186;-80
2021/05/17 08:45:56;;;;;;;0.10;0.10;;;16.00;99.90;;;;;;5054232;28;20278;-80
2021/05/17 08:48:22;;;;;;;0.10;0.10;;;15.90;99.90;;;;;;5054725;28;20183;-79
2021/05/17 08:50:48;;;;;;;0.10;0.10;;;15.80;99.90;;;;;;5053319;28;20190;-76
2021/05/17 08:53:14;;;;;;;0.00;0.00;;;15.20;99.90;;;;;;5065058;28;20227;-78
2021/05/17 08:55:40;;;;;;;0.43;0.30;;;15.00;99.90;;;;;;5047488;28;20307;-79
2021/05/17 08:58:07;;;;;;;0.20;0.10;;;14.90;99.90;;;;;;5047009;28;20201;-77
2021/05/17 09:00:33;;;;;;;0.10;0.10;;;15.00;99.90;;;;;;5046357;28;20239;-79
2021/05/17 09:02:59;;;;;;;0.10;0.10;;;15.00;99.90;;;;;;5051259;28;20192;-79
2021/05/17 09:05:32;;;;;;;0.10;0.10;;;15.10;99.90;;;;;;5053408;28;20224;-79
2021/05/17 09:08:01;;;;;;;0.10;0.10;;;15.10;99.90;;;;;;5050343;28;20261;-78
2021/05/17 09:10:39;;;;;;;0.00;0.00;;;15.30;99.90;;;;;;5050321;28;21434;-78
2021/05/17 09:13:08;;;;;;;0.10;0.10;;;15.30;99.90;;;;;;5043696;28;20665;-78
2021/05/17 09:15:38;;;;;;;0.10;0.10;;;15.30;99.90;;;;;;5051282;28;20192;-77
2021/05/17 09:18:14;;;;;;;0.07;0.07;;;15.40;99.90;;;;;;5042553;28;20263;-77
2021/05/17 09:20:41;;;;;;;0.10;0.10;;;15.00;99.90;;;;;;5057179;28;20210;-77
2021/05/17 09:23:19;;;;;;;0.10;0.10;;;15.00;99.90;;;;;;5060281;28;20648;-78
2021/05/17 09:26:00;;;;;;;2.10;0.47;;;15.10;99.90;;;;;;5052689;28;20276;-79
2021/05/17 09:28:29;;;;;;;1.23;0.37;;;15.20;99.90;;;;;;5049990;28;20183;-78
2021/05/17 09:31:16;;;;;;;1.60;0.13;;;15.20;99.90;;;;;;5051493;28;20194;-77
2021/05/17 09:33:50;;;;;;;0.30;0.30;;;15.00;99.90;;;;;;5048957;28;20206;-77
2021/05/17 09:36:30;;;;;;;0.10;0.10;;;14.80;99.90;;;;;;5049174;28;20738;-77
2021/05/17 09:39:03;;;;;;;0.20;0.20;;;14.80;99.90;;;;;;5051958;28;20185;-79
2021/05/17 09:41:39;;;;;;;0.60;0.30;;;14.80;99.90;;;;;;5047709;28;20230;-79
2021/05/17 09:44:05;;;;;;;0.10;0.10;;;15.10;99.90;;;;;;5048024;28;20222;-78
2021/05/17 09:47:05;;;;;;;0.10;0.10;;;15.20;99.90;;;;;;5052951;28;20310;-79
2021/05/17 09:50:03;;;;;;;0.10;0.10;;;15.30;99.90;;;;;;5054926;28;20712;-79
2021/05/17 09:52:36;;;;;;;10.20;0.40;;;15.20;99.90;;;;;;5052731;28;20180;-79
2021/05/17 09:55:07;;;;;;;0.10;0.10;;;14.90;99.90;;;;;;5054923;28;20184;-77
2021/05/17 09:57:38;;;;;;;0.10;0.10;;;14.40;99.90;;;;;;5049421;28;20205;-77
2021/05/17 10:00:20;;;;;;;0.10;0.10;;;14.30;99.90;;;;;;5047297;28;20229;-77
2021/05/17 10:02:47;;;;;;;0.10;0.10;;;14.40;99.90;;;;;;5047530;28;20209;-79
2021/05/17 10:05:13;;;;;;;0.10;0.10;;;14.70;99.90;;;;;;5060956;28;20196;-77
2021/05/17 10:07:39;;;;;;;0.20;0.20;;;15.00;99.90;;;;;;5049154;28;20835;-77
2021/05/17 10:10:05;;;;;;;0.10;0.10;;;15.30;99.90;;;;;;5039472;28;20661;-80
2021/05/17 10:12:31;;;;;;;0.17;0.17;;;15.60;99.90;;;;;;5051764;28;20200;-80
2021/05/17 10:14:57;;;;;;;0.10;0.10;;;15.70;99.90;;;;;;5047781;28;20190;-79
2021/05/17 10:17:23;;;;;;;0.20;0.17;;;16.30;99.90;;;;;;5051741;28;20751;-80
2021/05/17 10:19:49;;;;;;;0.40;0.10;;;16.50;99.90;;;;;;5042484;28;20222;-79
2021/05/17 10:22:15;;;;;;;0.00;0.00;;;16.40;99.90;;;;;;5046180;28;20289;-78
2021/05/17 10:24:41;;;;;;;0.10;0.10;;;16.60;99.90;;;;;;5047954;28;20647;-79
2021/05/17 10:27:08;;;;;;;0.40;0.30;;;16.50;99.90;;;;;;5049247;28;20201;-80
2021/05/17 10:29:36;;;;;;;0.27;0.27;;;16.60;99.90;;;;;;5048634;28;20217;-79
2021/05/17 10:32:05;;;;;;;0.10;0.10;;;16.70;99.90;;;;;;5048266;28;20212;-79
2021/05/17 10:34:31;;;;;;;0.10;0.10;;;17.00;99.90;;;;;;5052063;28;20195;-80
2021/05/17 10:37:02;;;;;;;0.10;0.10;;;16.90;99.90;;;;;;5051240;28;20215;-80
2021/05/17 10:39:33;;;;;;;0.10;0.10;;;16.70;99.90;;;;;;5051028;28;20199;-79
2021/05/17 10:48:18;;;;;;;0.40;0.10;;;17.10;99.90;;;;;;5047406;28;20297;-80
2021/05/17 10:50:48;;;;;;;0.00;0.00;;;17.50;99.90;;;;;;5050155;28;20205;-79
2021/05/17 10:53:42;;;;;;;0.90;0.90;;;17.10;99.90;;;;;;5048502;28;21394;-80
2021/05/17 10:56:09;;;;;;;0.10;0.10;;;16.70;99.90;;;;;;5048924;28;20644;-81
2021/05/17 11:01:59;;;;;;;0.17;0.17;;;16.00;99.90;;;;;;5043256;28;20238;-80
2021/05/17 11:04:27;;;;;;;0.10;0.10;;;15.80;99.90;;;;;;5049987;28;20179;-81
2021/05/17 11:07:11;;;;;;;1.30;0.83;;;15.50;99.90;;;;;;5049969;28;20232;-79
2021/05/17 11:09:55;;;;;;;0.20;0.20;;;15.10;99.90;;;;;;5049276;28;20437;-80
2021/05/17 11:12:27;;;;;;;0.10;0.10;;;14.80;99.90;;;;;;5042263;28;20466;-80
2021/05/17 11:15:10;;;;;;;0.20;0.20;;;14.70;99.90;;;;;;5047035;28;20235;-80
2021/05/17 11:17:57;;;;;;;0.30;0.13;;;14.80;99.90;;;;;;5041975;28;20209;-79
2021/05/17 11:20:41;;;;;;;0.10;0.10;;;14.80;99.90;;;;;;5046946;28;21126;-79
2021/05/17 11:23:20;;;;;;;0.20;0.20;;;15.30;99.90;;;;;;5041923;28;20186;-79
2021/05/17 11:25:56;;;;;;;0.10;0.10;;;15.40;99.90;;;;;;5044700;28;20264;-79
2021/05/17 11:28:34;;;;;;;0.10;0.10;;;15.20;99.90;;;;;;5044086;28;20217;-79
2021/05/17 11:31:25;;;;;;;0.00;0.00;;;15.10;99.90;;;;;;5047894;28;20442;-79
2021/05/17 11:33:51;;;;;;;0.17;0.17;;;14.90;99.90;;;;;;5040896;28;20208;-80
2021/05/17 11:36:31;;;;;;;0.43;0.23;;;14.70;99.90;;;;;;5049116;28;20202;-80
2021/05/17 11:39:10;;;;;;;0.13;0.13;;;14.50;99.90;;;;;;5047622;28;20179;-80
2021/05/17 11:41:49;;;;;;;0.10;0.10;;;14.50;99.90;;;;;;5044489;28;20197;-80
2021/05/17 11:44:20;;;;;;;0.20;0.20;;;14.30;99.90;;;;;;5050695;28;20254;-79
2021/05/17 11:47:07;;;;;;;0.10;0.10;;;14.40;99.90;;;;;;5048991;28;20674;-80
2021/05/17 11:49:36;;;;;;;0.10;0.10;;;14.50;99.90;;;;;;5054527;28;20309;-80
2021/05/17 11:52:05;;;;;;;0.10;0.10;;;14.90;99.90;;;;;;5044908;28;20219;-79
2021/05/17 11:54:41;;;;;;;0.10;0.10;;;15.80;99.90;;;;;;5040555;28;20261;-82
2021/05/17 11:57:09;;;;;;;0.20;0.20;;;16.40;99.90;;;;;;5043526;28;20199;-81
2021/05/17 11:59:35;;;;;;;0.10;0.10;;;16.50;99.90;;;;;;5049180;28;20237;-81
2021/05/17 12:02:04;;;;;;;0.13;0.13;;;16.70;99.90;;;;;;5049552;28;20626;-81
2021/05/17 12:04:39;;;;;;;0.10;0.10;;;16.90;99.90;;;;;;5041180;28;20182;-80
2021/05/17 12:07:15;;;;;;;0.10;0.10;;;16.70;99.90;;;;;;5038233;28;20196;-81
2021/05/17 12:09:54;;;;;;;0.10;0.10;;;16.40;99.90;;;;;;5050371;28;20265;-80
2021/05/17 12:12:22;;;;;;;0.00;0.00;;;16.40;99.90;;;;;;5053400;28;20608;-79
2021/05/17 12:14:53;;;;;;;1.40;0.20;;;16.50;99.90;;;;;;5046477;28;20200;-80
2021/05/17 12:17:21;;;;;;;0.10;0.10;;;16.30;99.90;;;;;;5040386;28;20750;-80
2021/05/17 12:19:49;;;;;;;0.10;0.10;;;16.10;99.90;;;;;;5048279;28;20196;-81
2021/05/17 12:22:17;;;;;;;0.20;0.20;;;16.10;99.90;;;;;;5053099;28;20239;-80
2021/05/17 12:24:43;;;;;;;0.17;0.17;;;16.30;99.90;;;;;;5047277;28;20202;-80
2021/05/17 12:27:13;;;;;;;0.10;0.10;;;16.80;99.90;;;;;;5049007;28;20706;-80
2021/05/17 12:29:51;;;;;;;0.10;0.10;;;17.10;99.90;;;;;;5053544;28;20258;-80
2021/05/17 12:32:20;;;;;;;0.00;0.00;;;17.30;99.90;;;;;;5047826;28;20194;-80
2021/05/17 12:35:00;;;;;;;0.10;0.10;;;17.30;99.90;;;;;;5054889;28;20218;-80
2021/05/17 12:37:29;;;;;;;0.10;0.10;;;17.20;99.90;;;;;;5065779;28;20261;-80
2021/05/17 12:40:21;;;;;;;0.20;0.10;;;17.30;99.90;;;;;;5055996;28;20177;-79
2021/05/17 12:43:03;;;;;;;0.10;0.10;;;17.30;99.90;;;;;;5054280;28;20302;-79
2021/05/17 12:45:29;;;;;;;0.10;0.10;;;17.30;99.90;;;;;;5053379;28;20230;-78
2021/05/17 12:47:55;;;;;;;0.10;0.10;;;17.10;99.90;;;;;;5057945;28;20228;-79
2021/05/17 12:50:33;;;;;;;0.93;0.20;;;17.20;99.90;;;;;;5048970;28;20265;-79
2021/05/17 12:53:04;;;;;;;0.07;0.07;;;17.10;99.90;;;;;;5049514;28;20232;-79
2021/05/17 12:55:37;;;;;;;0.03;0.03;;;17.10;99.90;;;;;;5052300;28;20191;-79
2021/05/17 12:58:03;;;;;;;0.10;0.10;;;17.20;99.90;;;;;;5056050;28;20203;-79
2021/05/17 13:00:49;;;;;;;0.10;0.10;;;17.30;99.90;;;;;;5053518;28;20203;-78
2021/05/17 13:03:35;;;;;;;0.10;0.10;;;17.60;99.90;;;;;;5040472;28;20896;-79
2021/05/17 13:06:17;;;;;;;0.10;0.10;;;17.90;99.90;;;;;;5019509;28;20216;-80
2021/05/17 13:08:45;;;;;;;0.20;0.20;;;17.90;99.90;;;;;;5025704;28;22109;-79
2021/05/17 13:11:20;;;;;;;0.10;0.10;;;17.30;99.90;;;;;;5031093;28;20189;-79
2021/05/17 13:13:50;;;;;;;0.10;0.10;;;17.10;99.90;;;;;;5055207;28;20549;-80
2021/05/17 13:16:38;;;;;;;0.10;0.10;;;16.80;99.90;;;;;;5045675;28;20208;-80
2021/05/17 13:19:19;;;;;;;0.10;0.10;;;16.40;99.90;;;;;;5054129;28;20193;-79
2021/05/17 13:22:43;;;;;;;0.10;0.10;;;15.40;99.90;;;;;;5051907;28;20767;-80
2021/05/17 13:31:02;;;;;;;0.10;0.10;;;13.50;99.90;;;;;;5039934;28;20193;-79
2021/05/17 13:33:37;;;;;;;0.10;0.10;;;13.50;99.90;;;;;;5049543;28;20193;-79
2021/05/17 13:36:20;;;;;;;0.10;0.10;;;13.60;99.90;;;;;;5049427;28;20266;-80
2021/05/17 13:38:50;;;;;;;0.10;0.10;;;13.80;99.90;;;;;;5049670;28;20224;-80